createdAt,value
2022-07-26T00:00:12.936Z,0.40
2022-07-26T00:02:48.155Z,0.30
2022-07-26T00:05:18.519Z,0.38
2022-07-26T00:07:46.086Z,0.40
2022-07-26T00:10:13.629Z,0.47
2022-07-26T00:12:40.407Z,0.50
2022-07-26T00:15:10.022Z,0.45
2022-07-26T00:17:36.794Z,0.50
2022-07-26T00:20:04.390Z,0.50
2022-07-26T00:22:34.271Z,0.50
2022-07-26T00:25:06.278Z,0.40
2022-07-26T00:27:36.826Z,0.50
2022-07-26T00:30:06.220Z,0.43
2022-07-26T00:32:33.124Z,0.55
2022-07-26T00:34:59.789Z,0.40
2022-07-26T00:37:26.485Z,0.60
2022-07-26T00:39:53.197Z,1.20
2022-07-26T00:42:19.913Z,0.70
2022-07-26T00:44:47.027Z,0.40
2022-07-26T00:47:14.454Z,0.38
2022-07-26T00:49:42.248Z,0.38
2022-07-26T00:52:10.204Z,0.52
2022-07-26T00:54:38.214Z,0.50
2022-07-26T00:57:05.208Z,0.45
2022-07-26T00:59:32.066Z,0.40
2022-07-26T01:01:58.870Z,0.60
2022-07-26T01:04:25.912Z,0.40
2022-07-26T01:06:53.380Z,0.52
2022-07-26T01:09:29.898Z,0.50
2022-07-26T01:12:00.183Z,0.60
2022-07-26T01:14:27.217Z,0.43
2022-07-26T01:16:54.514Z,0.40
2022-07-26T01:19:21.953Z,0.40
2022-07-26T01:21:50.250Z,0.40
2022-07-26T01:24:17.727Z,0.50
2022-07-26T01:26:44.524Z,0.47
2022-07-26T01:29:11.373Z,0.43
2022-07-26T01:31:38.057Z,0.60
2022-07-26T01:34:05.064Z,0.50
2022-07-26T01:36:31.856Z,0.47
2022-07-26T01:38:59.232Z,0.50
2022-07-26T01:41:37.146Z,0.40
2022-07-26T01:44:06.519Z,0.77
2022-07-26T01:46:34.809Z,0.40
2022-07-26T01:49:01.775Z,0.60
2022-07-26T01:51:28.844Z,0.60
2022-07-26T01:53:55.764Z,0.50
2022-07-26T01:56:22.440Z,0.50
2022-07-26T01:58:49.541Z,0.47
2022-07-26T02:01:16.337Z,0.50
2022-07-26T02:04:02.970Z,0.55
2022-07-26T02:06:29.647Z,0.50
2022-07-26T02:08:56.327Z,0.70
2022-07-26T02:11:23.232Z,0.50
2022-07-26T02:13:53.069Z,0.45
2022-07-26T02:16:20.118Z,0.50
2022-07-26T02:18:46.913Z,0.80
2022-07-26T02:21:13.575Z,0.60
2022-07-26T02:23:41.944Z,0.60
2022-07-26T02:26:09.003Z,0.70
2022-07-26T02:28:35.797Z,0.60
2022-07-26T02:31:02.604Z,0.60
2022-07-26T02:33:29.368Z,0.50
2022-07-26T02:35:56.021Z,0.52
2022-07-26T02:38:22.743Z,0.98
2022-07-26T02:40:52.766Z,0.50
2022-07-26T02:43:19.986Z,0.50
2022-07-26T02:46:00.881Z,0.50
2022-07-26T02:48:28.826Z,0.60
2022-07-26T02:50:55.627Z,0.50
2022-07-26T02:53:22.370Z,0.60
2022-07-26T02:55:49.034Z,0.70
2022-07-26T02:58:15.724Z,0.60
2022-07-26T03:00:42.663Z,0.50
2022-07-26T03:03:09.375Z,0.60
2022-07-26T03:05:36.066Z,0.60
2022-07-26T03:08:02.800Z,0.50
2022-07-26T03:10:37.052Z,0.50
2022-07-26T03:13:03.792Z,0.60
2022-07-26T03:15:30.613Z,0.50
2022-07-26T03:17:57.390Z,0.60
2022-07-26T03:20:24.790Z,0.82
2022-07-26T03:22:51.497Z,0.70
2022-07-26T03:25:18.153Z,0.50
2022-07-26T03:27:44.820Z,0.50
2022-07-26T03:30:12.123Z,0.50
2022-07-26T03:32:38.964Z,0.70
2022-07-26T03:35:07.751Z,0.40
2022-07-26T03:37:46.145Z,0.60
2022-07-26T03:40:17.192Z,1.10
2022-07-26T03:42:48.357Z,0.65
2022-07-26T03:45:15.943Z,0.75
2022-07-26T03:47:43.237Z,0.70
2022-07-26T03:50:11.054Z,0.80
2022-07-26T03:52:38.025Z,1.90
2022-07-26T03:55:25.955Z,1.00
2022-07-26T03:57:53.005Z,1.67
2022-07-26T04:00:19.802Z,3.38
2022-07-26T04:02:46.505Z,1.92
2022-07-26T04:05:13.411Z,1.17
2022-07-26T04:07:51.543Z,0.70
2022-07-26T04:10:21.751Z,0.50
2022-07-26T04:12:49.462Z,0.70
2022-07-26T04:15:16.990Z,0.68
2022-07-26T04:17:43.942Z,0.57
2022-07-26T04:20:12.513Z,0.60
2022-07-26T04:22:39.859Z,0.73
2022-07-26T04:25:08.524Z,0.60
2022-07-26T04:27:35.790Z,3.20
2022-07-26T04:30:02.694Z,2.05
2022-07-26T04:32:29.995Z,1.00
2022-07-26T04:34:56.704Z,0.80
2022-07-26T04:37:23.402Z,0.75
2022-07-26T04:39:54.805Z,0.80
2022-07-26T04:42:21.742Z,0.73
2022-07-26T04:44:48.527Z,1.42
2022-07-26T04:47:15.143Z,0.93
2022-07-26T04:49:41.790Z,0.60
2022-07-26T04:52:08.519Z,0.80
2022-07-26T04:54:35.194Z,0.80
2022-07-26T04:57:01.857Z,0.95
2022-07-26T04:59:28.502Z,1.00
2022-07-26T05:01:59.754Z,1.40
2022-07-26T05:04:26.683Z,0.90
2022-07-26T05:06:53.329Z,0.80
2022-07-26T05:09:19.967Z,0.80
2022-07-26T05:11:46.589Z,0.93
2022-07-26T05:14:13.226Z,0.90
2022-07-26T05:16:49.156Z,0.88
2022-07-26T05:19:15.889Z,1.20
2022-07-26T05:21:42.521Z,0.90
2022-07-26T05:24:10.128Z,0.85
2022-07-26T05:26:37.033Z,0.95
2022-07-26T05:29:03.744Z,0.80
2022-07-26T05:31:30.343Z,0.80
2022-07-26T05:33:56.963Z,0.98
2022-07-26T05:36:23.696Z,0.93
2022-07-26T05:38:50.319Z,0.77
2022-07-26T05:41:17.403Z,0.70
2022-07-26T05:44:04.711Z,0.60
2022-07-26T05:46:31.964Z,0.73
2022-07-26T05:48:59.041Z,0.93
2022-07-26T05:51:25.736Z,0.60
2022-07-26T05:53:53.294Z,0.90
2022-07-26T05:56:20.526Z,0.75
2022-07-26T05:58:47.293Z,0.77
2022-07-26T06:01:14.260Z,0.80
2022-07-26T06:03:40.933Z,0.70
2022-07-26T06:06:08.236Z,0.90
2022-07-26T06:08:36.225Z,1.00
2022-07-26T06:11:03.531Z,0.80
2022-07-26T06:13:30.258Z,0.80
2022-07-26T06:15:56.912Z,0.80
2022-07-26T06:18:23.753Z,0.70
2022-07-26T06:20:50.573Z,0.70
2022-07-26T06:23:17.253Z,0.90
2022-07-26T06:25:57.652Z,0.70
2022-07-26T06:28:24.419Z,0.70
2022-07-26T06:30:51.077Z,0.88
2022-07-26T06:33:17.872Z,0.80
2022-07-26T06:35:44.562Z,0.70
2022-07-26T06:38:11.290Z,0.70
2022-07-26T06:40:37.965Z,0.70
2022-07-26T06:43:04.993Z,0.73
2022-07-26T06:45:33.130Z,0.90
2022-07-26T06:47:59.958Z,0.82
2022-07-26T06:50:26.634Z,0.68
2022-07-26T06:52:53.280Z,0.60
2022-07-26T06:55:19.993Z,0.77
2022-07-26T06:57:50.369Z,0.65
2022-07-26T07:00:19.406Z,0.50
2022-07-26T07:02:46.061Z,0.47
2022-07-26T07:05:13.165Z,0.50
2022-07-26T07:07:42.131Z,0.60
2022-07-26T07:10:10.107Z,0.63
2022-07-26T07:12:36.867Z,0.73
2022-07-26T07:15:03.827Z,0.70
2022-07-26T07:17:30.602Z,0.50
2022-07-26T07:19:57.421Z,0.75
2022-07-26T07:22:24.331Z,0.60
2022-07-26T07:24:51.025Z,0.80
2022-07-26T07:27:17.718Z,0.93
2022-07-26T07:29:44.733Z,0.80
2022-07-26T07:32:18.325Z,0.70
2022-07-26T07:34:47.537Z,0.73
2022-07-26T07:37:15.135Z,0.60
2022-07-26T07:39:41.834Z,0.60
2022-07-26T07:42:08.524Z,0.50
2022-07-26T07:44:35.230Z,0.80
2022-07-26T07:47:02.098Z,0.80
2022-07-26T07:49:28.963Z,0.82
2022-07-26T07:51:55.681Z,1.20
2022-07-26T07:54:22.445Z,0.70
2022-07-26T07:56:49.342Z,0.95
2022-07-26T07:59:16.055Z,0.70
2022-07-26T08:01:42.807Z,0.77
2022-07-26T08:04:11.837Z,0.80
2022-07-26T08:06:40.903Z,0.80
2022-07-26T08:09:09.289Z,0.70
2022-07-26T08:11:41.765Z,0.70
2022-07-26T08:14:08.672Z,0.70
2022-07-26T08:16:36.259Z,0.93
2022-07-26T08:19:03.424Z,0.70
2022-07-26T08:21:30.585Z,0.85
2022-07-26T08:23:57.568Z,1.02
2022-07-26T08:26:24.553Z,0.70
2022-07-26T08:28:59.995Z,0.70
2022-07-26T08:31:30.674Z,0.55
2022-07-26T08:33:57.708Z,0.90
2022-07-26T08:36:26.183Z,0.70
2022-07-26T08:38:57.728Z,0.65
2022-07-26T08:41:24.454Z,0.50
2022-07-26T08:43:53.528Z,0.85
2022-07-26T08:46:27.475Z,0.70
2022-07-26T08:48:57.785Z,0.70
2022-07-26T08:51:26.110Z,0.75
2022-07-26T08:54:02.155Z,0.70
2022-07-26T08:56:32.448Z,0.60
2022-07-26T08:58:59.223Z,0.70
2022-07-26T09:01:27.049Z,0.45
2022-07-26T09:03:53.847Z,0.63
2022-07-26T09:06:22.808Z,0.60
2022-07-26T09:09:10.411Z,0.60
2022-07-26T09:11:37.507Z,0.70
2022-07-26T09:14:05.959Z,0.40
2022-07-26T09:16:37.276Z,0.30
2022-07-26T09:19:22.389Z,0.32
2022-07-26T09:21:50.131Z,0.30
2022-07-26T09:24:37.824Z,0.40
2022-07-26T09:27:06.534Z,0.50
2022-07-26T09:29:46.700Z,0.52
2022-07-26T09:32:17.066Z,0.40
2022-07-26T09:35:44.064Z,0.40
2022-07-26T09:37:59.841Z,0.75
2022-07-26T09:40:34.648Z,0.32
2022-07-26T09:43:03.826Z,0.20
2022-07-26T09:45:32.810Z,0.30
2022-07-26T09:48:00.022Z,0.40
2022-07-26T09:50:29.208Z,0.30
2022-07-26T09:53:08.534Z,0.40
2022-07-26T09:55:57.080Z,0.40
2022-07-26T09:58:24.624Z,0.30
2022-07-26T10:00:51.491Z,0.30
2022-07-26T10:03:18.286Z,0.40
2022-07-26T10:05:45.016Z,0.30
2022-07-26T10:08:12.679Z,0.30
2022-07-26T10:10:47.796Z,0.40
2022-07-26T10:13:14.642Z,0.30
2022-07-26T10:15:46.866Z,0.20
2022-07-26T10:18:35.723Z,0.40
2022-07-26T10:21:25.103Z,0.30
2022-07-26T10:23:53.075Z,0.25
2022-07-26T10:26:31.759Z,0.30
2022-07-26T10:29:19.827Z,0.40
2022-07-26T10:32:00.471Z,0.45
2022-07-26T10:34:37.529Z,0.30
2022-07-26T10:37:10.392Z,0.47
2022-07-26T10:39:38.811Z,0.50
2022-07-26T10:42:08.511Z,0.30
2022-07-26T10:45:19.685Z,0.47
2022-07-26T10:48:12.262Z,0.40
2022-07-26T10:50:41.065Z,0.55
2022-07-26T10:53:10.851Z,0.38
2022-07-26T10:55:50.192Z,0.50
2022-07-26T10:58:17.882Z,0.30
2022-07-26T11:01:04.593Z,0.20
2022-07-26T11:03:39.929Z,0.40
2022-07-26T11:06:13.903Z,0.30
2022-07-26T11:08:45.982Z,0.30
2022-07-26T11:11:33.611Z,0.30
2022-07-26T11:14:12.372Z,0.40
2022-07-26T11:16:45.585Z,0.30
2022-07-26T11:19:20.387Z,0.25
2022-07-26T11:21:57.243Z,0.40
2022-07-26T11:24:24.137Z,0.30
2022-07-26T11:26:50.913Z,0.40
2022-07-26T11:29:35.644Z,0.40
2022-07-26T11:32:17.764Z,0.30
2022-07-26T11:34:45.890Z,0.40
2022-07-26T11:37:13.375Z,0.22
2022-07-26T11:39:40.132Z,0.30
2022-07-26T11:42:11.576Z,0.30
2022-07-26T11:44:38.631Z,0.35
2022-07-26T11:47:12.479Z,0.50
2022-07-26T11:52:31.351Z,0.30
2022-07-26T11:54:58.276Z,0.30
2022-07-26T11:57:32.217Z,0.30
2022-07-26T12:00:00.527Z,0.20
2022-07-26T12:02:29.160Z,0.40
2022-07-26T12:05:22.255Z,0.30
2022-07-26T12:08:00.683Z,0.30
2022-07-26T12:10:54.717Z,0.20
2022-07-26T12:13:24.407Z,0.20
2022-07-26T12:15:53.161Z,0.28
2022-07-26T12:18:28.695Z,0.40
2022-07-26T12:21:06.283Z,0.30
2022-07-26T12:23:48.383Z,0.30
2022-07-26T12:26:34.069Z,0.30
2022-07-26T12:29:19.992Z,0.30
2022-07-26T12:31:59.924Z,0.30
2022-07-26T12:34:26.638Z,0.28
2022-07-26T12:36:53.330Z,0.40
2022-07-26T12:39:23.644Z,0.20
2022-07-26T12:41:50.549Z,0.10
2022-07-26T12:44:17.451Z,0.30
2022-07-26T12:46:44.919Z,0.40
2022-07-26T12:49:11.872Z,0.22
2022-07-26T12:51:38.795Z,0.20
2022-07-26T12:54:06.507Z,0.30
2022-07-26T12:56:33.864Z,0.20
2022-07-26T12:59:03.570Z,0.30
2022-07-26T13:01:31.309Z,0.20
2022-07-26T13:03:58.463Z,0.30
2022-07-26T13:06:25.311Z,0.30
2022-07-26T13:08:52.056Z,0.40
2022-07-26T13:11:18.976Z,0.30
2022-07-26T13:13:45.842Z,0.35
2022-07-26T13:16:12.711Z,0.50
2022-07-26T13:18:39.622Z,0.38
2022-07-26T13:21:06.584Z,0.50
2022-07-26T13:23:34.929Z,0.30
2022-07-26T13:26:02.645Z,0.30
2022-07-26T13:28:30.248Z,0.40
2022-07-26T13:30:57.048Z,0.20
2022-07-26T13:33:23.833Z,0.20
2022-07-26T13:35:50.553Z,0.30
2022-07-26T13:38:19.543Z,0.32
2022-07-26T13:40:46.351Z,0.30
2022-07-26T13:43:13.099Z,0.30
2022-07-26T13:45:39.913Z,0.40
2022-07-26T13:48:07.238Z,0.30
2022-07-26T13:50:34.013Z,0.22
2022-07-26T13:53:00.767Z,0.20
2022-07-26T13:55:27.526Z,0.30
2022-07-26T13:57:57.015Z,0.20
2022-07-26T14:00:29.168Z,0.30
2022-07-26T14:02:58.886Z,0.40
2022-07-26T14:05:27.381Z,0.35
2022-07-26T14:07:54.961Z,0.30
2022-07-26T14:10:22.869Z,0.20
2022-07-26T14:12:50.522Z,0.20
2022-07-26T14:15:21.997Z,0.30
2022-07-26T14:17:51.461Z,0.50
2022-07-26T14:20:18.901Z,0.43
2022-07-26T14:22:47.125Z,0.30
2022-07-26T14:25:14.471Z,0.20
2022-07-26T14:27:41.101Z,0.30
2022-07-26T14:30:08.276Z,0.30
2022-07-26T14:32:35.076Z,0.43
2022-07-26T14:35:01.771Z,0.40
2022-07-26T14:37:41.547Z,0.40
2022-07-26T14:40:30.720Z,0.60
2022-07-26T14:42:57.646Z,0.45
2022-07-26T14:45:24.366Z,0.40
2022-07-26T14:47:51.081Z,0.30
2022-07-26T14:50:17.882Z,0.45
2022-07-26T14:52:46.745Z,0.40
2022-07-26T14:55:15.195Z,0.50
2022-07-26T14:57:44.969Z,0.40
2022-07-26T15:00:17.537Z,0.40
2022-07-26T15:02:47.356Z,0.40
2022-07-26T15:05:16.709Z,0.40
2022-07-26T15:07:44.144Z,0.40
2022-07-26T15:10:12.803Z,0.40
2022-07-26T15:12:40.081Z,0.30
2022-07-26T15:15:08.467Z,0.40
2022-07-26T15:17:36.748Z,0.40
2022-07-26T15:20:05.152Z,0.30
2022-07-26T15:22:31.959Z,0.38
2022-07-26T15:25:04.871Z,0.30
2022-07-26T15:27:37.632Z,0.30
2022-07-26T15:30:10.247Z,0.52
2022-07-26T15:32:41.392Z,0.95
2022-07-26T15:35:14.139Z,0.65
2022-07-26T15:37:43.727Z,0.30
2022-07-26T15:40:11.482Z,0.68
2022-07-26T15:42:44.175Z,0.40
2022-07-26T15:45:12.017Z,0.45
2022-07-26T15:48:00.952Z,0.43
2022-07-26T15:50:26.577Z,0.40
2022-07-26T15:52:53.495Z,0.40
2022-07-26T15:55:21.674Z,0.40
2022-07-26T15:57:48.533Z,0.40
2022-07-26T16:00:15.884Z,0.50
2022-07-26T16:02:42.830Z,0.40
2022-07-26T16:05:10.975Z,0.50
2022-07-26T16:07:44.049Z,0.40
2022-07-26T16:10:12.283Z,0.50
2022-07-26T16:12:40.394Z,0.47
2022-07-26T16:15:09.013Z,0.40
2022-07-26T16:17:35.930Z,0.50
2022-07-26T16:20:02.965Z,0.50
2022-07-26T16:22:31.679Z,0.30
2022-07-26T16:24:58.521Z,0.50
2022-07-26T16:27:25.322Z,0.55
2022-07-26T16:29:52.661Z,0.45
2022-07-26T16:32:21.252Z,0.60
2022-07-26T16:34:48.423Z,0.30
2022-07-26T16:37:15.583Z,0.35
2022-07-26T16:39:42.546Z,0.52
2022-07-26T16:42:09.265Z,0.30
2022-07-26T16:44:36.227Z,0.50
2022-07-26T16:47:04.118Z,0.50
2022-07-26T16:49:31.066Z,0.65
2022-07-26T16:51:58.196Z,0.45
2022-07-26T16:54:25.273Z,0.43
2022-07-26T16:56:51.973Z,0.47
2022-07-26T16:59:18.955Z,0.63
2022-07-26T17:01:45.860Z,0.50
2022-07-26T17:04:12.690Z,0.30
2022-07-26T17:06:39.457Z,0.30
2022-07-26T17:09:06.199Z,0.30
2022-07-26T17:11:33.046Z,0.40
2022-07-26T17:13:59.856Z,0.38
2022-07-26T17:16:27.255Z,0.30
2022-07-26T17:18:55.162Z,0.50
2022-07-26T17:21:22.647Z,0.50
2022-07-26T17:23:50.028Z,0.40
2022-07-26T17:26:17.772Z,0.30
2022-07-26T17:28:44.935Z,0.47
2022-07-26T17:31:11.918Z,0.38
2022-07-26T17:33:38.773Z,0.22
2022-07-26T17:36:22.102Z,0.32
2022-07-26T17:38:49.544Z,0.40
2022-07-26T17:41:18.560Z,0.40
2022-07-26T17:43:46.393Z,0.20
2022-07-26T17:46:13.319Z,0.28
2022-07-26T17:48:40.425Z,0.40
2022-07-26T17:51:07.366Z,0.40
2022-07-26T17:53:34.895Z,0.30
2022-07-26T17:56:02.726Z,0.52
2022-07-26T17:58:29.429Z,0.70
2022-07-26T18:00:56.149Z,1.00
2022-07-26T18:03:23.272Z,0.30
2022-07-26T18:05:50.834Z,0.40
2022-07-26T18:08:17.831Z,0.40
2022-07-26T18:10:50.498Z,0.40
2022-07-26T18:13:17.831Z,0.30
2022-07-26T18:15:45.124Z,0.30
2022-07-26T18:18:12.021Z,0.30
2022-07-26T18:20:39.233Z,0.40
2022-07-26T18:23:06.009Z,0.30
2022-07-26T18:25:32.913Z,0.43
2022-07-26T18:28:04.742Z,0.40
2022-07-26T18:30:33.815Z,0.50
2022-07-26T18:33:01.136Z,0.50
2022-07-26T18:35:28.303Z,0.40
2022-07-26T18:37:55.267Z,0.47
2022-07-26T18:40:23.506Z,0.50
2022-07-26T18:42:50.647Z,0.50
2022-07-26T18:45:17.621Z,0.32
2022-07-26T18:47:44.418Z,0.50
2022-07-26T18:50:21.565Z,0.63
2022-07-26T18:52:49.141Z,0.50
2022-07-26T18:55:15.957Z,0.40
2022-07-26T18:57:44.021Z,0.55
2022-07-26T19:00:14.338Z,0.47
2022-07-26T19:02:42.475Z,0.75
2022-07-26T19:05:09.589Z,0.70
2022-07-26T19:07:38.137Z,0.60
2022-07-26T19:10:06.313Z,0.57
2022-07-26T19:12:33.252Z,0.50
2022-07-26T19:15:00.154Z,0.52
2022-07-26T19:17:28.296Z,0.57
2022-07-26T19:19:57.353Z,0.50
2022-07-26T19:22:26.204Z,0.68
2022-07-26T19:24:53.019Z,0.60
2022-07-26T19:27:20.519Z,0.95
2022-07-26T19:29:47.315Z,0.52
2022-07-26T19:32:14.450Z,0.93
2022-07-26T19:34:41.204Z,0.52
2022-07-26T19:37:08.012Z,0.40
2022-07-26T19:39:34.848Z,0.70
2022-07-26T19:42:01.661Z,0.70
2022-07-26T19:44:28.441Z,0.75
2022-07-26T19:46:57.703Z,0.80
2022-07-26T19:49:25.186Z,0.93
2022-07-26T19:51:52.100Z,0.55
2022-07-26T19:54:18.895Z,0.70
2022-07-26T19:56:45.713Z,1.10
2022-07-26T19:59:12.861Z,2.05
2022-07-26T20:01:40.164Z,0.60
2022-07-26T20:04:07.380Z,0.70
2022-07-26T20:06:34.300Z,0.77
2022-07-26T20:09:01.316Z,0.50
2022-07-26T20:11:28.304Z,0.63
2022-07-26T20:13:57.548Z,0.75
2022-07-26T20:16:24.330Z,0.50
2022-07-26T20:18:51.104Z,1.35
2022-07-26T20:21:17.876Z,0.88
2022-07-26T20:23:44.634Z,0.85
2022-07-26T20:26:13.224Z,1.10
2022-07-26T20:28:43.586Z,1.00
2022-07-26T20:31:10.360Z,0.80
2022-07-26T20:33:44.532Z,0.73
2022-07-26T20:36:11.253Z,0.70
2022-07-26T20:38:38.248Z,0.70
2022-07-26T20:41:05.110Z,0.60
2022-07-26T20:43:33.269Z,0.70
2022-07-26T20:46:01.211Z,0.82
2022-07-26T20:48:27.920Z,0.60
2022-07-26T20:50:54.619Z,0.65
2022-07-26T20:53:21.509Z,1.13
2022-07-26T20:55:48.208Z,0.80
2022-07-26T20:58:15.024Z,0.73
2022-07-26T21:00:41.912Z,0.70
2022-07-26T21:03:08.731Z,0.82
2022-07-26T21:05:35.642Z,0.60
2022-07-26T21:08:02.350Z,0.60
2022-07-26T21:10:29.560Z,0.70
2022-07-26T21:13:00.948Z,0.57
2022-07-26T21:15:29.124Z,0.65
2022-07-26T21:17:56.299Z,0.70
2022-07-26T21:20:23.563Z,0.95
2022-07-26T21:22:50.230Z,0.60
2022-07-26T21:25:17.020Z,0.90
2022-07-26T21:27:43.888Z,0.80
2022-07-26T21:30:11.028Z,0.70
2022-07-26T21:32:37.766Z,0.80
2022-07-26T21:35:04.827Z,0.88
2022-07-26T21:37:31.704Z,0.70
2022-07-26T21:40:00.848Z,0.85
2022-07-26T21:42:28.171Z,0.80
2022-07-26T21:44:54.850Z,0.75
2022-07-26T21:47:26.685Z,0.80
2022-07-26T21:49:53.409Z,0.90
2022-07-26T21:52:20.038Z,0.90
2022-07-26T21:54:46.697Z,0.80
2022-07-26T21:57:13.338Z,0.90
2022-07-26T21:59:39.993Z,1.00
2022-07-26T22:02:06.690Z,0.85
2022-07-26T22:04:33.438Z,1.00
2022-07-26T22:07:00.115Z,1.00
2022-07-26T22:09:26.810Z,0.80
2022-07-26T22:11:53.591Z,1.02
2022-07-26T22:14:20.994Z,1.20
2022-07-26T22:16:49.047Z,3.05
2022-07-26T22:19:15.902Z,1.08
2022-07-26T22:21:42.524Z,1.05
2022-07-26T22:24:09.193Z,0.80
2022-07-26T22:26:36.146Z,0.85
2022-07-26T22:29:03.065Z,1.10
2022-07-26T22:31:29.840Z,0.90
2022-07-26T22:33:56.526Z,1.05
2022-07-26T22:36:23.187Z,1.17
2022-07-26T22:38:49.868Z,0.90
2022-07-26T22:41:16.623Z,1.10
2022-07-26T22:43:43.290Z,0.90
2022-07-26T22:46:10.104Z,1.15
2022-07-26T22:48:38.687Z,1.13
2022-07-26T22:51:05.665Z,1.10
2022-07-26T22:53:32.291Z,0.93
2022-07-26T22:55:58.907Z,1.42
2022-07-26T22:58:25.568Z,1.42
2022-07-26T23:00:52.280Z,1.02
2022-07-26T23:03:21.492Z,1.13
2022-07-26T23:05:49.611Z,1.20
2022-07-26T23:11:04.610Z,1.15
2022-07-26T23:13:31.358Z,1.35
2022-07-26T23:16:00.790Z,1.45
2022-07-26T23:18:29.894Z,1.15
2022-07-26T23:20:56.771Z,1.45
2022-07-26T23:23:25.300Z,1.70
2022-07-26T23:25:55.809Z,1.05
2022-07-26T23:28:35.392Z,1.50
2022-07-26T23:31:11.806Z,1.25
2022-07-26T23:33:53.369Z,1.35
2022-07-26T23:36:25.982Z,1.40
2022-07-26T23:38:54.456Z,1.35
2022-07-26T23:41:21.817Z,1.65
2022-07-26T23:43:48.694Z,1.90
2022-07-26T23:46:15.625Z,1.80
2022-07-26T23:48:42.377Z,2.03
2022-07-26T23:51:09.125Z,2.05
2022-07-26T23:53:36.024Z,1.80
2022-07-26T23:56:03.230Z,1.60
2022-07-26T23:58:30.042Z,1.88
